sensor_id;sensor_type;location;lat;lon;timestamp;temperature;humidity
74376;HTU21D;62812;55.188;61.302;2023-03-23T00:00:13;3.79;54.60
74376;HTU21D;62812;55.188;61.302;2023-03-23T00:02:41;3.87;55.39
74376;HTU21D;62812;55.188;61.302;2023-03-23T00:05:09;3.82;53.23
74376;HTU21D;62812;55.188;61.302;2023-03-23T00:07:36;3.69;53.63
74376;HTU21D;62812;55.188;61.302;2023-03-23T00:10:03;3.56;54.41
74376;HTU21D;62812;55.188;61.302;2023-03-23T00:12:31;3.44;54.39
74376;HTU21D;62812;55.188;61.302;2023-03-23T00:15:01;3.31;54.84
74376;HTU21D;62812;55.188;61.302;2023-03-23T00:17:28;3.24;55.56
74376;HTU21D;62812;55.188;61.302;2023-03-23T00:19:56;3.17;55.61
74376;HTU21D;62812;55.188;61.302;2023-03-23T00:22:23;3.14;55.87
74376;HTU21D;62812;55.188;61.302;2023-03-23T00:24:51;3.11;55.61
74376;HTU21D;62812;55.188;61.302;2023-03-23T00:27:18;3.06;55.68
74376;HTU21D;62812;55.188;61.302;2023-03-23T00:29:44;3.05;56.07
74376;HTU21D;62812;55.188;61.302;2023-03-23T00:32:12;3.01;55.61
74376;HTU21D;62812;55.188;61.302;2023-03-23T00:34:41;3.01;55.68
74376;HTU21D;62812;55.188;61.302;2023-03-23T00:37:10;2.96;56.26
74376;HTU21D;62812;55.188;61.302;2023-03-23T00:39:38;2.93;56.75
74376;HTU21D;62812;55.188;61.302;2023-03-23T00:42:05;2.86;56.86
74376;HTU21D;62812;55.188;61.302;2023-03-23T00:44:33;2.80;57.10
74376;HTU21D;62812;55.188;61.302;2023-03-23T00:47:01;2.72;57.77
74376;HTU21D;62812;55.188;61.302;2023-03-23T00:49:28;2.65;57.80
74376;HTU21D;62812;55.188;61.302;2023-03-23T00:51:55;2.61;58.48
74376;HTU21D;62812;55.188;61.302;2023-03-23T00:54:24;2.54;58.05
74376;HTU21D;62812;55.188;61.302;2023-03-23T00:56:51;2.49;58.19
74376;HTU21D;62812;55.188;61.302;2023-03-23T00:59:18;2.49;58.77
74376;HTU21D;62812;55.188;61.302;2023-03-23T01:01:45;2.46;58.66
74376;HTU21D;62812;55.188;61.302;2023-03-23T01:04:12;2.42;59.44
74376;HTU21D;62812;55.188;61.302;2023-03-23T01:06:40;2.37;58.58
74376;HTU21D;62812;55.188;61.302;2023-03-23T01:09:09;2.32;58.45
74376;HTU21D;62812;55.188;61.302;2023-03-23T01:11:37;2.30;58.53
74376;HTU21D;62812;55.188;61.302;2023-03-23T01:14:04;2.29;58.67
74376;HTU21D;62812;55.188;61.302;2023-03-23T01:16:31;2.28;59.36
74376;HTU21D;62812;55.188;61.302;2023-03-23T01:18:57;2.24;59.18
74376;HTU21D;62812;55.188;61.302;2023-03-23T01:21:24;2.21;59.60
74376;HTU21D;62812;55.188;61.302;2023-03-23T01:23:51;2.20;60.09
74376;HTU21D;62812;55.188;61.302;2023-03-23T01:26:19;2.20;59.45
74376;HTU21D;62812;55.188;61.302;2023-03-23T01:28:48;2.16;60.08
74376;HTU21D;62812;55.188;61.302;2023-03-23T01:31:17;2.15;60.15
74376;HTU21D;62812;55.188;61.302;2023-03-23T01:33:44;2.14;59.49
74376;HTU21D;62812;55.188;61.302;2023-03-23T01:36:13;2.13;59.64
74376;HTU21D;62812;55.188;61.302;2023-03-23T01:38:41;2.11;59.54
74376;HTU21D;62812;55.188;61.302;2023-03-23T01:41:08;2.12;59.76
74376;HTU21D;62812;55.188;61.302;2023-03-23T01:43:34;2.12;59.77
74376;HTU21D;62812;55.188;61.302;2023-03-23T01:46:02;2.12;59.63
74376;HTU21D;62812;55.188;61.302;2023-03-23T01:48:31;2.12;59.72
74376;HTU21D;62812;55.188;61.302;2023-03-23T01:51:02;2.11;60.16
74376;HTU21D;62812;55.188;61.302;2023-03-23T01:53:34;2.10;60.12
74376;HTU21D;62812;55.188;61.302;2023-03-23T01:56:02;2.09;60.75
74376;HTU21D;62812;55.188;61.302;2023-03-23T01:58:31;2.12;60.98
74376;HTU21D;62812;55.188;61.302;2023-03-23T02:01:00;2.13;60.36
74376;HTU21D;62812;55.188;61.302;2023-03-23T02:03:29;2.17;60.33
74376;HTU21D;62812;55.188;61.302;2023-03-23T02:05:58;2.19;60.47
74376;HTU21D;62812;55.188;61.302;2023-03-23T02:08:26;2.22;60.68
74376;HTU21D;62812;55.188;61.302;2023-03-23T02:10:54;2.26;60.98
74376;HTU21D;62812;55.188;61.302;2023-03-23T02:13:21;2.31;60.57
74376;HTU21D;62812;55.188;61.302;2023-03-23T02:16:01;2.27;61.11
74376;HTU21D;62812;55.188;61.302;2023-03-23T02:18:42;2.26;61.08
74376;HTU21D;62812;55.188;61.302;2023-03-23T02:24:55;2.29;60.77
74376;HTU21D;62812;55.188;61.302;2023-03-23T02:27:39;2.40;60.57
74376;HTU21D;62812;55.188;61.302;2023-03-23T02:30:17;2.55;60.60
74376;HTU21D;62812;55.188;61.302;2023-03-23T02:35:56;2.81;58.78
74376;HTU21D;62812;55.188;61.302;2023-03-23T02:38:30;2.91;58.92
74376;HTU21D;62812;55.188;61.302;2023-03-23T02:41:00;2.98;58.84
74376;HTU21D;62812;55.188;61.302;2023-03-23T02:43:31;2.96;58.39
74376;HTU21D;62812;55.188;61.302;2023-03-23T02:46:00;3.13;58.05
74376;HTU21D;62812;55.188;61.302;2023-03-23T02:48:32;3.27;57.25
74376;HTU21D;62812;55.188;61.302;2023-03-23T02:51:01;3.39;57.22
74376;HTU21D;62812;55.188;61.302;2023-03-23T02:53:30;3.52;57.82
74376;HTU21D;62812;55.188;61.302;2023-03-23T02:56:01;3.73;56.65
74376;HTU21D;62812;55.188;61.302;2023-03-23T02:58:33;3.86;56.37
74376;HTU21D;62812;55.188;61.302;2023-03-23T03:00:59;3.89;56.09
74376;HTU21D;62812;55.188;61.302;2023-03-23T03:03:31;4.10;55.66
74376;HTU21D;62812;55.188;61.302;2023-03-23T03:06:09;4.16;54.84
74376;HTU21D;62812;55.188;61.302;2023-03-23T03:08:43;4.22;54.33
74376;HTU21D;62812;55.188;61.302;2023-03-23T03:11:13;4.34;55.40
74376;HTU21D;62812;55.188;61.302;2023-03-23T03:13:50;4.62;53.92
74376;HTU21D;62812;55.188;61.302;2023-03-23T03:16:24;4.90;52.40
74376;HTU21D;62812;55.188;61.302;2023-03-23T03:18:59;5.13;52.51
74376;HTU21D;62812;55.188;61.302;2023-03-23T03:21:33;5.39;51.76
74376;HTU21D;62812;55.188;61.302;2023-03-23T03:24:05;5.59;50.88
74376;HTU21D;62812;55.188;61.302;2023-03-23T03:26:38;5.75;51.34
74376;HTU21D;62812;55.188;61.302;2023-03-23T03:29:08;5.96;50.44
74376;HTU21D;62812;55.188;61.302;2023-03-23T03:31:38;6.01;49.69
74376;HTU21D;62812;55.188;61.302;2023-03-23T03:34:09;6.28;50.27
74376;HTU21D;62812;55.188;61.302;2023-03-23T03:36:40;6.65;49.26
74376;HTU21D;62812;55.188;61.302;2023-03-23T03:39:08;6.80;48.30
74376;HTU21D;62812;55.188;61.302;2023-03-23T03:41:38;6.90;48.68
74376;HTU21D;62812;55.188;61.302;2023-03-23T03:44:05;7.03;48.34
74376;HTU21D;62812;55.188;61.302;2023-03-23T03:46:32;7.10;48.87
74376;HTU21D;62812;55.188;61.302;2023-03-23T03:48:59;7.07;46.54
74376;HTU21D;62812;55.188;61.302;2023-03-23T03:51:27;7.11;47.22
74376;HTU21D;62812;55.188;61.302;2023-03-23T03:53:57;7.26;46.87
74376;HTU21D;62812;55.188;61.302;2023-03-23T03:56:24;7.37;47.37
74376;HTU21D;62812;55.188;61.302;2023-03-23T03:58:50;7.57;46.27
74376;HTU21D;62812;55.188;61.302;2023-03-23T04:01:18;7.67;45.88
74376;HTU21D;62812;55.188;61.302;2023-03-23T04:03:47;7.71;46.25
74376;HTU21D;62812;55.188;61.302;2023-03-23T04:06:13;7.70;45.77
74376;HTU21D;62812;55.188;61.302;2023-03-23T04:08:43;7.73;45.49
74376;HTU21D;62812;55.188;61.302;2023-03-23T04:11:13;7.64;45.79
74376;HTU21D;62812;55.188;61.302;2023-03-23T04:13:40;7.64;44.90
74376;HTU21D;62812;55.188;61.302;2023-03-23T04:16:08;7.69;44.50
74376;HTU21D;62812;55.188;61.302;2023-03-23T04:18:36;7.87;44.65
74376;HTU21D;62812;55.188;61.302;2023-03-23T04:21:04;8.09;44.35
74376;HTU21D;62812;55.188;61.302;2023-03-23T04:23:35;8.14;43.61
74376;HTU21D;62812;55.188;61.302;2023-03-23T04:26:03;8.19;43.17
74376;HTU21D;62812;55.188;61.302;2023-03-23T04:28:30;8.24;43.25
74376;HTU21D;62812;55.188;61.302;2023-03-23T04:31:00;8.32;43.85
74376;HTU21D;62812;55.188;61.302;2023-03-23T04:33:32;8.33;41.84
74376;HTU21D;62812;55.188;61.302;2023-03-23T04:36:00;8.26;43.26
74376;HTU21D;62812;55.188;61.302;2023-03-23T04:38:30;8.18;49.31
74376;HTU21D;62812;55.188;61.302;2023-03-23T04:41:00;8.41;44.29
74376;HTU21D;62812;55.188;61.302;2023-03-23T04:43:29;8.51;51.32
74376;HTU21D;62812;55.188;61.302;2023-03-23T04:45:57;8.82;42.77
74376;HTU21D;62812;55.188;61.302;2023-03-23T04:48:24;9.24;40.71
74376;HTU21D;62812;55.188;61.302;2023-03-23T04:50:50;9.31;46.60
74376;HTU21D;62812;55.188;61.302;2023-03-23T04:53:18;9.33;39.96
74376;HTU21D;62812;55.188;61.302;2023-03-23T04:55:46;9.10;42.50
74376;HTU21D;62812;55.188;61.302;2023-03-23T04:58:14;9.04;40.22
74376;HTU21D;62812;55.188;61.302;2023-03-23T05:00:43;8.96;41.25
74376;HTU21D;62812;55.188;61.302;2023-03-23T05:03:17;8.75;40.58
74376;HTU21D;62812;55.188;61.302;2023-03-23T05:05:44;8.52;40.93
74376;HTU21D;62812;55.188;61.302;2023-03-23T05:08:18;8.34;41.46
74376;HTU21D;62812;55.188;61.302;2023-03-23T05:10:55;8.38;42.69
74376;HTU21D;62812;55.188;61.302;2023-03-23T05:13:25;8.33;39.88
74376;HTU21D;62812;55.188;61.302;2023-03-23T05:16:03;8.35;40.95
74376;HTU21D;62812;55.188;61.302;2023-03-23T05:18:32;8.50;42.47
74376;HTU21D;62812;55.188;61.302;2023-03-23T05:21:00;8.59;39.66
74376;HTU21D;62812;55.188;61.302;2023-03-23T05:23:29;8.64;43.95
74376;HTU21D;62812;55.188;61.302;2023-03-23T05:25:58;8.44;38.98
74376;HTU21D;62812;55.188;61.302;2023-03-23T05:28:28;8.35;38.36
74376;HTU21D;62812;55.188;61.302;2023-03-23T05:30:56;8.26;40.78
74376;HTU21D;62812;55.188;61.302;2023-03-23T05:33:24;8.20;40.52
74376;HTU21D;62812;55.188;61.302;2023-03-23T05:35:51;8.11;39.82
74376;HTU21D;62812;55.188;61.302;2023-03-23T05:38:18;8.12;39.30
74376;HTU21D;62812;55.188;61.302;2023-03-23T05:40:45;8.23;40.10
74376;HTU21D;62812;55.188;61.302;2023-03-23T05:43:31;7.98;41.41
74376;HTU21D;62812;55.188;61.302;2023-03-23T05:46:02;7.89;39.10
74376;HTU21D;62812;55.188;61.302;2023-03-23T05:48:30;7.90;37.84
74376;HTU21D;62812;55.188;61.302;2023-03-23T05:50:57;7.72;42.74
74376;HTU21D;62812;55.188;61.302;2023-03-23T05:53:23;7.88;46.53
74376;HTU21D;62812;55.188;61.302;2023-03-23T05:55:50;7.89;40.23
74376;HTU21D;62812;55.188;61.302;2023-03-23T05:58:19;7.93;44.65
74376;HTU21D;62812;55.188;61.302;2023-03-23T06:00:49;7.85;43.06
74376;HTU21D;62812;55.188;61.302;2023-03-23T06:03:25;7.96;44.09
74376;HTU21D;62812;55.188;61.302;2023-03-23T06:05:53;8.01;38.62
74376;HTU21D;62812;55.188;61.302;2023-03-23T06:08:21;7.93;37.70
74376;HTU21D;62812;55.188;61.302;2023-03-23T06:10:52;7.90;39.23
74376;HTU21D;62812;55.188;61.302;2023-03-23T06:13:18;7.79;42.87
74376;HTU21D;62812;55.188;61.302;2023-03-23T06:15:47;8.02;40.48
74376;HTU21D;62812;55.188;61.302;2023-03-23T06:18:15;8.04;41.78
74376;HTU21D;62812;55.188;61.302;2023-03-23T06:20:42;8.26;45.16
74376;HTU21D;62812;55.188;61.302;2023-03-23T06:23:12;8.21;39.83
74376;HTU21D;62812;55.188;61.302;2023-03-23T06:25:39;8.22;37.14
74376;HTU21D;62812;55.188;61.302;2023-03-23T06:28:06;8.20;37.59
74376;HTU21D;62812;55.188;61.302;2023-03-23T06:30:32;8.42;39.39
74376;HTU21D;62812;55.188;61.302;2023-03-23T06:32:59;8.34;37.14
74376;HTU21D;62812;55.188;61.302;2023-03-23T06:35:25;8.27;44.47
74376;HTU21D;62812;55.188;61.302;2023-03-23T06:37:52;8.35;38.93
74376;HTU21D;62812;55.188;61.302;2023-03-23T06:40:22;8.38;40.30
74376;HTU21D;62812;55.188;61.302;2023-03-23T06:42:50;8.22;37.77
74376;HTU21D;62812;55.188;61.302;2023-03-23T06:45:20;8.19;45.66
74376;HTU21D;62812;55.188;61.302;2023-03-23T06:47:47;8.04;39.83
74376;HTU21D;62812;55.188;61.302;2023-03-23T06:50:16;7.99;46.66
74376;HTU21D;62812;55.188;61.302;2023-03-23T06:52:45;7.91;41.81
74376;HTU21D;62812;55.188;61.302;2023-03-23T06:55:12;8.16;42.44
74376;HTU21D;62812;55.188;61.302;2023-03-23T06:57:41;8.24;38.56
74376;HTU21D;62812;55.188;61.302;2023-03-23T07:00:11;8.23;36.68
74376;HTU21D;62812;55.188;61.302;2023-03-23T07:02:39;8.13;37.33
74376;HTU21D;62812;55.188;61.302;2023-03-23T07:05:07;7.98;38.51
74376;HTU21D;62812;55.188;61.302;2023-03-23T07:07:35;7.99;38.57
74376;HTU21D;62812;55.188;61.302;2023-03-23T07:10:04;8.03;37.34
74376;HTU21D;62812;55.188;61.302;2023-03-23T07:12:31;8.14;38.62
74376;HTU21D;62812;55.188;61.302;2023-03-23T07:15:02;8.21;39.14
74376;HTU21D;62812;55.188;61.302;2023-03-23T07:17:28;8.19;39.53
74376;HTU21D;62812;55.188;61.302;2023-03-23T07:19:56;8.22;43.64
74376;HTU21D;62812;55.188;61.302;2023-03-23T07:22:23;8.20;37.91
74376;HTU21D;62812;55.188;61.302;2023-03-23T07:24:49;8.22;36.88
74376;HTU21D;62812;55.188;61.302;2023-03-23T07:27:16;8.34;43.30
74376;HTU21D;62812;55.188;61.302;2023-03-23T07:29:42;8.66;36.83
74376;HTU21D;62812;55.188;61.302;2023-03-23T07:32:15;8.68;35.66
74376;HTU21D;62812;55.188;61.302;2023-03-23T07:34:46;8.58;39.59
74376;HTU21D;62812;55.188;61.302;2023-03-23T07:37:13;8.51;38.18
74376;HTU21D;62812;55.188;61.302;2023-03-23T07:39:40;8.38;36.54
74376;HTU21D;62812;55.188;61.302;2023-03-23T07:42:07;8.42;35.60
74376;HTU21D;62812;55.188;61.302;2023-03-23T07:44:34;8.39;34.94
74376;HTU21D;62812;55.188;61.302;2023-03-23T07:47:03;8.48;35.77
74376;HTU21D;62812;55.188;61.302;2023-03-23T07:49:31;8.45;35.63
74376;HTU21D;62812;55.188;61.302;2023-03-23T07:51:58;8.48;36.66
74376;HTU21D;62812;55.188;61.302;2023-03-23T07:54:27;8.46;35.67
74376;HTU21D;62812;55.188;61.302;2023-03-23T07:56:53;8.46;35.53
74376;HTU21D;62812;55.188;61.302;2023-03-23T07:59:20;8.48;34.56
74376;HTU21D;62812;55.188;61.302;2023-03-23T08:01:46;8.37;35.95
74376;HTU21D;62812;55.188;61.302;2023-03-23T08:04:13;8.46;38.91
74376;HTU21D;62812;55.188;61.302;2023-03-23T08:06:41;8.57;43.60
74376;HTU21D;62812;55.188;61.302;2023-03-23T08:09:08;8.64;32.39
74376;HTU21D;62812;55.188;61.302;2023-03-23T08:11:37;8.83;34.51
74376;HTU21D;62812;55.188;61.302;2023-03-23T08:14:04;8.98;36.39
74376;HTU21D;62812;55.188;61.302;2023-03-23T08:16:35;9.03;34.44
74376;HTU21D;62812;55.188;61.302;2023-03-23T08:19:07;9.16;38.27
74376;HTU21D;62812;55.188;61.302;2023-03-23T08:21:34;9.14;35.03
74376;HTU21D;62812;55.188;61.302;2023-03-23T08:24:07;9.18;38.71
74376;HTU21D;62812;55.188;61.302;2023-03-23T08:26:34;9.09;37.86
74376;HTU21D;62812;55.188;61.302;2023-03-23T08:29:01;9.16;32.90
74376;HTU21D;62812;55.188;61.302;2023-03-23T08:31:29;9.21;33.41
74376;HTU21D;62812;55.188;61.302;2023-03-23T08:34:01;9.54;34.17
74376;HTU21D;62812;55.188;61.302;2023-03-23T08:36:53;9.61;37.35
74376;HTU21D;62812;55.188;61.302;2023-03-23T08:39:22;9.45;31.01
74376;HTU21D;62812;55.188;61.302;2023-03-23T08:41:49;9.33;33.67
74376;HTU21D;62812;55.188;61.302;2023-03-23T08:44:16;9.21;33.96
74376;HTU21D;62812;55.188;61.302;2023-03-23T08:46:42;9.18;33.89
74376;HTU21D;62812;55.188;61.302;2023-03-23T08:49:09;9.34;36.12
74376;HTU21D;62812;55.188;61.302;2023-03-23T08:51:36;9.46;33.79
74376;HTU21D;62812;55.188;61.302;2023-03-23T08:54:03;9.48;33.19
74376;HTU21D;62812;55.188;61.302;2023-03-23T08:56:31;9.36;33.86
74376;HTU21D;62812;55.188;61.302;2023-03-23T08:58:59;9.45;33.67
74376;HTU21D;62812;55.188;61.302;2023-03-23T09:01:26;9.48;33.82
74376;HTU21D;62812;55.188;61.302;2023-03-23T09:03:52;9.55;32.91
74376;HTU21D;62812;55.188;61.302;2023-03-23T09:06:20;9.55;33.76
74376;HTU21D;62812;55.188;61.302;2023-03-23T09:08:46;9.63;33.22
74376;HTU21D;62812;55.188;61.302;2023-03-23T09:11:12;9.77;31.64
74376;HTU21D;62812;55.188;61.302;2023-03-23T09:13:41;10.09;34.68
74376;HTU21D;62812;55.188;61.302;2023-03-23T09:16:08;10.09;30.88
74376;HTU21D;62812;55.188;61.302;2023-03-23T09:18:35;10.27;38.52
74376;HTU21D;62812;55.188;61.302;2023-03-23T09:21:02;10.38;32.19
74376;HTU21D;62812;55.188;61.302;2023-03-23T09:23:29;10.33;33.17
74376;HTU21D;62812;55.188;61.302;2023-03-23T09:25:56;10.43;33.77
74376;HTU21D;62812;55.188;61.302;2023-03-23T09:28:22;10.50;36.33
74376;HTU21D;62812;55.188;61.302;2023-03-23T09:30:50;10.63;39.58
74376;HTU21D;62812;55.188;61.302;2023-03-23T09:33:17;11.15;37.07
74376;HTU21D;62812;55.188;61.302;2023-03-23T09:35:46;11.10;30.64
74376;HTU21D;62812;55.188;61.302;2023-03-23T09:38:14;11.44;38.72
74376;HTU21D;62812;55.188;61.302;2023-03-23T09:40:45;11.75;31.73
74376;HTU21D;62812;55.188;61.302;2023-03-23T09:43:30;11.99;37.66
74376;HTU21D;62812;55.188;61.302;2023-03-23T09:46:16;11.84;28.11
74376;HTU21D;62812;55.188;61.302;2023-03-23T09:48:50;11.48;28.53
74376;HTU21D;62812;55.188;61.302;2023-03-23T09:51:32;11.16;28.66
74376;HTU21D;62812;55.188;61.302;2023-03-23T09:54:03;10.86;29.40
74376;HTU21D;62812;55.188;61.302;2023-03-23T09:56:33;10.81;29.50
74376;HTU21D;62812;55.188;61.302;2023-03-23T09:59:02;10.77;40.84
74376;HTU21D;62812;55.188;61.302;2023-03-23T10:01:36;10.88;28.49
74376;HTU21D;62812;55.188;61.302;2023-03-23T10:04:07;10.92;30.09
74376;HTU21D;62812;55.188;61.302;2023-03-23T10:06:35;10.80;29.07
74376;HTU21D;62812;55.188;61.302;2023-03-23T10:09:04;10.71;29.20
74376;HTU21D;62812;55.188;61.302;2023-03-23T10:11:39;10.63;30.32
74376;HTU21D;62812;55.188;61.302;2023-03-23T10:17:02;10.57;29.51
74376;HTU21D;62812;55.188;61.302;2023-03-23T10:19:34;10.57;29.95
74376;HTU21D;62812;55.188;61.302;2023-03-23T10:22:07;10.60;28.10
74376;HTU21D;62812;55.188;61.302;2023-03-23T10:24:36;10.73;29.41
74376;HTU21D;62812;55.188;61.302;2023-03-23T10:27:14;10.74;33.08
74376;HTU21D;62812;55.188;61.302;2023-03-23T10:29:46;10.87;36.53
74376;HTU21D;62812;55.188;61.302;2023-03-23T10:32:18;10.90;31.96
74376;HTU21D;62812;55.188;61.302;2023-03-23T10:34:49;10.89;32.83
74376;HTU21D;62812;55.188;61.302;2023-03-23T10:37:19;10.64;38.71
74376;HTU21D;62812;55.188;61.302;2023-03-23T10:39:51;10.67;34.02
74376;HTU21D;62812;55.188;61.302;2023-03-23T10:42:24;10.92;32.76
74376;HTU21D;62812;55.188;61.302;2023-03-23T10:44:51;10.84;32.50
74376;HTU21D;62812;55.188;61.302;2023-03-23T10:47:22;10.83;36.24
74376;HTU21D;62812;55.188;61.302;2023-03-23T10:49:52;10.99;33.43
74376;HTU21D;62812;55.188;61.302;2023-03-23T10:52:32;10.90;33.79
74376;HTU21D;62812;55.188;61.302;2023-03-23T10:55:13;10.83;33.41
74376;HTU21D;62812;55.188;61.302;2023-03-23T10:57:42;10.81;34.06
74376;HTU21D;62812;55.188;61.302;2023-03-23T11:00:18;10.79;34.43
74376;HTU21D;62812;55.188;61.302;2023-03-23T11:02:47;10.70;31.57
74376;HTU21D;62812;55.188;61.302;2023-03-23T11:05:27;10.60;32.78
74376;HTU21D;62812;55.188;61.302;2023-03-23T11:07:59;10.79;32.76
74376;HTU21D;62812;55.188;61.302;2023-03-23T11:10:35;10.58;34.19
74376;HTU21D;62812;55.188;61.302;2023-03-23T11:13:01;10.52;31.86
74376;HTU21D;62812;55.188;61.302;2023-03-23T11:15:34;10.42;40.27
74376;HTU21D;62812;55.188;61.302;2023-03-23T11:18:04;10.52;31.29
74376;HTU21D;62812;55.188;61.302;2023-03-23T11:20:35;10.55;34.18
74376;HTU21D;62812;55.188;61.302;2023-03-23T11:23:09;10.71;41.46
74376;HTU21D;62812;55.188;61.302;2023-03-23T11:25:52;11.30;40.27
74376;HTU21D;62812;55.188;61.302;2023-03-23T11:28:21;11.58;39.90
74376;HTU21D;62812;55.188;61.302;2023-03-23T11:30:54;11.59;29.76
74376;HTU21D;62812;55.188;61.302;2023-03-23T11:33:29;11.37;31.38
74376;HTU21D;62812;55.188;61.302;2023-03-23T11:35:55;11.29;35.03
74376;HTU21D;62812;55.188;61.302;2023-03-23T11:38:24;11.14;37.41
74376;HTU21D;62812;55.188;61.302;2023-03-23T11:40:59;11.49;41.72
74376;HTU21D;62812;55.188;61.302;2023-03-23T11:43:26;11.74;37.11
74376;HTU21D;62812;55.188;61.302;2023-03-23T11:46:01;11.40;32.67
74376;HTU21D;62812;55.188;61.302;2023-03-23T11:48:34;11.30;37.59
74376;HTU21D;62812;55.188;61.302;2023-03-23T11:51:08;11.31;35.49
74376;HTU21D;62812;55.188;61.302;2023-03-23T11:53:48;11.28;33.96
74376;HTU21D;62812;55.188;61.302;2023-03-23T11:56:24;11.22;30.46
74376;HTU21D;62812;55.188;61.302;2023-03-23T11:58:53;11.09;30.23
74376;HTU21D;62812;55.188;61.302;2023-03-23T12:01:43;10.89;31.99
74376;HTU21D;62812;55.188;61.302;2023-03-23T12:04:31;11.27;38.94
74376;HTU21D;62812;55.188;61.302;2023-03-23T12:07:12;11.14;36.42
74376;HTU21D;62812;55.188;61.302;2023-03-23T12:09:47;11.11;34.94
74376;HTU21D;62812;55.188;61.302;2023-03-23T12:12:21;11.04;33.13
74376;HTU21D;62812;55.188;61.302;2023-03-23T12:14:56;11.33;42.48
74376;HTU21D;62812;55.188;61.302;2023-03-23T12:17:32;11.79;31.93
74376;HTU21D;62812;55.188;61.302;2023-03-23T12:20:11;11.71;36.58
74376;HTU21D;62812;55.188;61.302;2023-03-23T12:22:51;11.57;35.54
74376;HTU21D;62812;55.188;61.302;2023-03-23T12:25:43;11.29;31.71
74376;HTU21D;62812;55.188;61.302;2023-03-23T12:28:19;11.13;36.73
74376;HTU21D;62812;55.188;61.302;2023-03-23T12:30:51;11.00;36.69
74376;HTU21D;62812;55.188;61.302;2023-03-23T12:33:28;10.94;31.21
74376;HTU21D;62812;55.188;61.302;2023-03-23T12:36:08;10.72;30.90
74376;HTU21D;62812;55.188;61.302;2023-03-23T12:38:52;10.59;32.69
74376;HTU21D;62812;55.188;61.302;2023-03-23T12:41:26;10.26;35.69
74376;HTU21D;62812;55.188;61.302;2023-03-23T12:43:58;10.39;40.97
74376;HTU21D;62812;55.188;61.302;2023-03-23T12:49:44;10.51;42.38
74376;HTU21D;62812;55.188;61.302;2023-03-23T12:52:20;10.69;36.72
74376;HTU21D;62812;55.188;61.302;2023-03-23T12:55:04;10.48;32.04
74376;HTU21D;62812;55.188;61.302;2023-03-23T12:57:36;10.30;32.97
74376;HTU21D;62812;55.188;61.302;2023-03-23T13:00:19;10.39;36.96
74376;HTU21D;62812;55.188;61.302;2023-03-23T13:03:05;10.35;42.29
74376;HTU21D;62812;55.188;61.302;2023-03-23T13:05:40;10.14;31.51
74376;HTU21D;62812;55.188;61.302;2023-03-23T13:08:14;10.05;36.90
74376;HTU21D;62812;55.188;61.302;2023-03-23T13:10:45;10.10;33.97
74376;HTU21D;62812;55.188;61.302;2023-03-23T13:13:16;9.92;34.18
74376;HTU21D;62812;55.188;61.302;2023-03-23T13:15:51;9.80;33.64
74376;HTU21D;62812;55.188;61.302;2023-03-23T13:18:24;9.64;31.64
74376;HTU21D;62812;55.188;61.302;2023-03-23T13:20:58;9.47;34.13
74376;HTU21D;62812;55.188;61.302;2023-03-23T13:23:31;9.23;32.64
74376;HTU21D;62812;55.188;61.302;2023-03-23T13:26:01;9.08;35.85
74376;HTU21D;62812;55.188;61.302;2023-03-23T13:28:29;9.09;34.54
74376;HTU21D;62812;55.188;61.302;2023-03-23T13:30:58;9.08;34.50
74376;HTU21D;62812;55.188;61.302;2023-03-23T13:33:25;9.08;34.24
74376;HTU21D;62812;55.188;61.302;2023-03-23T13:35:52;8.95;33.59
74376;HTU21D;62812;55.188;61.302;2023-03-23T13:38:23;9.10;41.33
74376;HTU21D;62812;55.188;61.302;2023-03-23T13:40:56;9.08;35.61
74376;HTU21D;62812;55.188;61.302;2023-03-23T13:43:29;9.27;35.32
74376;HTU21D;62812;55.188;61.302;2023-03-23T13:46:08;9.04;33.13
74376;HTU21D;62812;55.188;61.302;2023-03-23T13:48:46;9.04;38.06
74376;HTU21D;62812;55.188;61.302;2023-03-23T13:51:32;8.80;34.31
74376;HTU21D;62812;55.188;61.302;2023-03-23T13:54:14;8.61;33.18
74376;HTU21D;62812;55.188;61.302;2023-03-23T13:56:50;8.60;34.87
74376;HTU21D;62812;55.188;61.302;2023-03-23T13:59:33;8.50;34.66
74376;HTU21D;62812;55.188;61.302;2023-03-23T14:02:32;8.52;34.44
74376;HTU21D;62812;55.188;61.302;2023-03-23T14:05:21;8.32;33.47
74376;HTU21D;62812;55.188;61.302;2023-03-23T14:07:56;8.30;37.37
74376;HTU21D;62812;55.188;61.302;2023-03-23T14:10:31;8.32;34.82
74376;HTU21D;62812;55.188;61.302;2023-03-23T14:13:00;8.22;33.96
74376;HTU21D;62812;55.188;61.302;2023-03-23T14:15:29;8.14;34.50
74376;HTU21D;62812;55.188;61.302;2023-03-23T14:17:56;8.07;37.23
74376;HTU21D;62812;55.188;61.302;2023-03-23T14:20:26;8.17;37.86
74376;HTU21D;62812;55.188;61.302;2023-03-23T14:22:56;8.18;37.62
74376;HTU21D;62812;55.188;61.302;2023-03-23T14:25:26;8.16;41.62
74376;HTU21D;62812;55.188;61.302;2023-03-23T14:27:53;8.07;33.16
74376;HTU21D;62812;55.188;61.302;2023-03-23T14:30:25;8.02;34.21
74376;HTU21D;62812;55.188;61.302;2023-03-23T14:32:53;8.03;37.47
74376;HTU21D;62812;55.188;61.302;2023-03-23T14:35:23;7.98;37.30
74376;HTU21D;62812;55.188;61.302;2023-03-23T14:38:15;7.94;34.56
74376;HTU21D;62812;55.188;61.302;2023-03-23T14:40:46;7.99;44.64
74376;HTU21D;62812;55.188;61.302;2023-03-23T14:43:16;7.86;34.92
74376;HTU21D;62812;55.188;61.302;2023-03-23T14:45:59;7.83;41.72
74376;HTU21D;62812;55.188;61.302;2023-03-23T14:48:26;7.70;35.68
74376;HTU21D;62812;55.188;61.302;2023-03-23T14:50:57;7.54;35.99
74376;HTU21D;62812;55.188;61.302;2023-03-23T14:53:26;7.39;37.01
74376;HTU21D;62812;55.188;61.302;2023-03-23T14:56:00;7.37;38.07
74376;HTU21D;62812;55.188;61.302;2023-03-23T14:58:29;7.37;41.17
74376;HTU21D;62812;55.188;61.302;2023-03-23T15:00:59;7.32;39.16
74376;HTU21D;62812;55.188;61.302;2023-03-23T15:03:27;7.38;43.95
74376;HTU21D;62812;55.188;61.302;2023-03-23T15:06:01;7.32;38.89
74376;HTU21D;62812;55.188;61.302;2023-03-23T15:08:31;7.32;41.12
74376;HTU21D;62812;55.188;61.302;2023-03-23T15:11:09;7.33;41.89
74376;HTU21D;62812;55.188;61.302;2023-03-23T15:13:42;7.45;42.93
74376;HTU21D;62812;55.188;61.302;2023-03-23T15:16:23;7.49;39.56
74376;HTU21D;62812;55.188;61.302;2023-03-23T15:18:53;7.53;47.50
74376;HTU21D;62812;55.188;61.302;2023-03-23T15:21:23;7.32;39.66
74376;HTU21D;62812;55.188;61.302;2023-03-23T15:23:50;7.25;40.70
74376;HTU21D;62812;55.188;61.302;2023-03-23T15:26:29;7.20;40.52
74376;HTU21D;62812;55.188;61.302;2023-03-23T15:29:17;7.20;42.29
74376;HTU21D;62812;55.188;61.302;2023-03-23T15:31:54;7.14;46.00
74376;HTU21D;62812;55.188;61.302;2023-03-23T15:34:32;7.15;41.55
74376;HTU21D;62812;55.188;61.302;2023-03-23T15:37:04;7.05;42.39
74376;HTU21D;62812;55.188;61.302;2023-03-23T15:39:32;7.05;44.03
74376;HTU21D;62812;55.188;61.302;2023-03-23T15:41:59;7.12;47.83
74376;HTU21D;62812;55.188;61.302;2023-03-23T15:44:33;7.05;41.87
74376;HTU21D;62812;55.188;61.302;2023-03-23T15:47:13;6.88;42.24